sensor_id;sensor_type;location;lat;lon;timestamp;pressure;altitude;pressure_sealevel;temperature;humidity
8717;BME280;4395;48.554;8.820;2023-02-20T00:01:56;96996.00;;;7.69;100.00
8717;BME280;4395;48.554;8.820;2023-02-20T00:04:01;96980.38;;;7.59;100.00
8717;BME280;4395;48.554;8.820;2023-02-20T00:06:04;96984.28;;;7.57;100.00
8717;BME280;4395;48.554;8.820;2023-02-20T00:08:06;96989.44;;;7.65;100.00
8717;BME280;4395;48.554;8.820;2023-02-20T00:10:10;96983.47;;;7.63;100.00
8717;BME280;4395;48.554;8.820;2023-02-20T00:12:12;96993.53;;;7.61;100.00
8717;BME280;4395;48.554;8.820;2023-02-20T00:14:15;96954.66;;;7.32;100.00
8717;BME280;4395;48.554;8.820;2023-02-20T00:16:18;96997.25;;;7.53;100.00
8717;BME280;4395;48.554;8.820;2023-02-20T00:18:21;96713.94;;;5.81;100.00
8717;BME280;4395;48.554;8.820;2023-02-20T00:20:25;97002.59;;;7.60;100.00
8717;BME280;4395;48.554;8.820;2023-02-20T00:22:30;96928.13;;;7.17;100.00
8717;BME280;4395;48.554;8.820;2023-02-20T00:24:33;96951.38;;;7.30;100.00
8717;BME280;4395;48.554;8.820;2023-02-20T00:26:36;96995.41;;;7.60;100.00
8717;BME280;4395;48.554;8.820;2023-02-20T00:28:40;96945.81;;;7.25;100.00
8717;BME280;4395;48.554;8.820;2023-02-20T00:30:43;96999.31;;;7.58;100.00
8717;BME280;4395;48.554;8.820;2023-02-20T00:32:49;96986.97;;;7.57;100.00
8717;BME280;4395;48.554;8.820;2023-02-20T00:34:52;96970.28;;;7.55;100.00
8717;BME280;4395;48.554;8.820;2023-02-20T00:36:57;96893.59;;;7.09;100.00
8717;BME280;4395;48.554;8.820;2023-02-20T00:38:59;96922.38;;;7.33;100.00
8717;BME280;4395;48.554;8.820;2023-02-20T00:41:02;96969.25;;;7.56;100.00
8717;BME280;4395;48.554;8.820;2023-02-20T00:43:05;96946.84;;;7.37;100.00
8717;BME280;4395;48.554;8.820;2023-02-20T00:45:09;96986.56;;;7.53;100.00
8717;BME280;4395;48.554;8.820;2023-02-20T00:47:12;96981.00;;;7.55;100.00
8717;BME280;4395;48.554;8.820;2023-02-20T00:49:15;96988.81;;;7.56;100.00
8717;BME280;4395;48.554;8.820;2023-02-20T00:51:21;96951.59;;;7.41;100.00
8717;BME280;4395;48.554;8.820;2023-02-20T00:53:25;96981.41;;;7.52;100.00
8717;BME280;4395;48.554;8.820;2023-02-20T00:55:28;96982.03;;;7.54;100.00
8717;BME280;4395;48.554;8.820;2023-02-20T00:57:30;96987.38;;;7.54;100.00
8717;BME280;4395;48.554;8.820;2023-02-20T00:59:33;96993.53;;;7.54;100.00
8717;BME280;4395;48.554;8.820;2023-02-20T01:01:36;96998.69;;;7.56;100.00
8717;BME280;4395;48.554;8.820;2023-02-20T01:03:39;97015.78;;;7.48;100.00
8717;BME280;4395;48.554;8.820;2023-02-20T01:05:42;96896.03;;;6.64;100.00
8717;BME280;4395;48.554;8.820;2023-02-20T01:07:45;97013.50;;;7.45;100.00
8717;BME280;4395;48.554;8.820;2023-02-20T01:09:49;97005.69;;;7.50;100.00
8717;BME280;4395;48.554;8.820;2023-02-20T01:11:52;97006.09;;;7.60;100.00
8717;BME280;4395;48.554;8.820;2023-02-20T01:13:55;97019.06;;;7.63;100.00
8717;BME280;4395;48.554;8.820;2023-02-20T01:15:58;97004.66;;;7.64;100.00
8717;BME280;4395;48.554;8.820;2023-02-20T01:18:01;97010.81;;;7.65;100.00
8717;BME280;4395;48.554;8.820;2023-02-20T01:20:05;97003.00;;;7.63;100.00
8717;BME280;4395;48.554;8.820;2023-02-20T01:22:08;97000.75;;;7.60;100.00
8717;BME280;4395;48.554;8.820;2023-02-20T01:24:11;96928.56;;;7.14;100.00
8717;BME280;4395;48.554;8.820;2023-02-20T01:26:15;97006.50;;;7.51;100.00
8717;BME280;4395;48.554;8.820;2023-02-20T01:28:18;96974.84;;;7.41;100.00
8717;BME280;4395;48.554;8.820;2023-02-20T01:30:21;96996.03;;;7.49;100.00
8717;BME280;4395;48.554;8.820;2023-02-20T01:32:23;96986.16;;;7.50;100.00
8717;BME280;4395;48.554;8.820;2023-02-20T01:34:26;96991.06;;;7.53;100.00
8717;BME280;4395;48.554;8.820;2023-02-20T01:36:29;96989.63;;;7.57;100.00
8717;BME280;4395;48.554;8.820;2023-02-20T01:38:32;96985.53;;;7.54;100.00
8717;BME280;4395;48.554;8.820;2023-02-20T01:40:37;97004.03;;;7.56;100.00
8717;BME280;4395;48.554;8.820;2023-02-20T01:42:41;96985.31;;;7.56;100.00
8717;BME280;4395;48.554;8.820;2023-02-20T01:44:44;96892.34;;;6.98;100.00
8717;BME280;4395;48.554;8.820;2023-02-20T01:46:50;96979.56;;;7.52;100.00
8717;BME280;4395;48.554;8.820;2023-02-20T01:48:57;96990.88;;;7.48;100.00
8717;BME280;4395;48.554;8.820;2023-02-20T01:51:02;96991.91;;;7.47;100.00
8717;BME280;4395;48.554;8.820;2023-02-20T01:53:08;96977.91;;;7.45;100.00
8717;BME280;4395;48.554;8.820;2023-02-20T01:55:15;96985.31;;;7.49;100.00
8717;BME280;4395;48.554;8.820;2023-02-20T01:57:21;96903.03;;;6.85;100.00
8717;BME280;4395;48.554;8.820;2023-02-20T01:59:31;96984.28;;;7.43;100.00
8717;BME280;4395;48.554;8.820;2023-02-20T02:01:34;96984.50;;;7.42;100.00
8717;BME280;4395;48.554;8.820;2023-02-20T02:03:40;96970.91;;;7.43;100.00
8717;BME280;4395;48.554;8.820;2023-02-20T02:05:46;96977.91;;;7.45;100.00
8717;BME280;4395;48.554;8.820;2023-02-20T02:07:50;96973.19;;;7.47;100.00
8717;BME280;4395;48.554;8.820;2023-02-20T02:09:55;96950.75;;;7.28;100.00
8717;BME280;4395;48.554;8.820;2023-02-20T02:12:02;96961.03;;;7.37;100.00
8717;BME280;4395;48.554;8.820;2023-02-20T02:14:06;96965.16;;;7.40;100.00
8717;BME280;4395;48.554;8.820;2023-02-20T02:16:19;96945.22;;;7.29;100.00
8717;BME280;4395;48.554;8.820;2023-02-20T02:18:45;96960.63;;;7.34;100.00
8717;BME280;4395;48.554;8.820;2023-02-20T02:26:07;96938.00;;;7.23;100.00
8717;BME280;4395;48.554;8.820;2023-02-20T02:28:40;96942.34;;;7.24;100.00
8717;BME280;4395;48.554;8.820;2023-02-20T02:31:21;96951.59;;;7.22;100.00
8717;BME280;4395;48.554;8.820;2023-02-20T02:33:52;96884.53;;;6.77;100.00
8717;BME280;4395;48.554;8.820;2023-02-20T02:38:45;96903.84;;;6.72;100.00
8717;BME280;4395;48.554;8.820;2023-02-20T02:40:57;96947.06;;;7.09;100.00
8717;BME280;4395;48.554;8.820;2023-02-20T02:43:08;96942.94;;;7.06;100.00
8717;BME280;4395;48.554;8.820;2023-02-20T02:45:16;96934.09;;;6.99;100.00
8717;BME280;4395;48.554;8.820;2023-02-20T02:47:24;96937.59;;;7.00;100.00
8717;BME280;4395;48.554;8.820;2023-02-20T02:49:34;96940.47;;;6.98;100.00
8717;BME280;4395;48.554;8.820;2023-02-20T02:51:41;96934.50;;;6.96;100.00
8717;BME280;4395;48.554;8.820;2023-02-20T02:54:05;96931.63;;;6.91;100.00
8717;BME280;4395;48.554;8.820;2023-02-20T02:56:09;96932.44;;;6.92;100.00
8717;BME280;4395;48.554;8.820;2023-02-20T02:58:22;96935.53;;;6.89;100.00
8717;BME280;4395;48.554;8.820;2023-02-20T03:00:28;96937.16;;;6.90;100.00
8717;BME280;4395;48.554;8.820;2023-02-20T03:02:41;96945.41;;;6.95;100.00
8717;BME280;4395;48.554;8.820;2023-02-20T03:04:48;96934.72;;;6.95;100.00
8717;BME280;4395;48.554;8.820;2023-02-20T03:06:57;96942.31;;;6.91;100.00
8717;BME280;4395;48.554;8.820;2023-02-20T03:09:04;96939.63;;;6.85;100.00
8717;BME280;4395;48.554;8.820;2023-02-20T03:11:13;96931.81;;;6.76;100.00
8717;BME280;4395;48.554;8.820;2023-02-20T03:13:18;96855.91;;;6.25;100.00
8717;BME280;4395;48.554;8.820;2023-02-20T03:15:27;96941.06;;;6.81;100.00
8717;BME280;4395;48.554;8.820;2023-02-20T03:17:37;96940.03;;;6.68;100.00
8717;BME280;4395;48.554;8.820;2023-02-20T03:19:43;96935.91;;;6.72;100.00
8717;BME280;4395;48.554;8.820;2023-02-20T03:21:49;96934.69;;;6.68;100.00
8717;BME280;4395;48.554;8.820;2023-02-20T03:23:58;96934.88;;;6.60;100.00
8717;BME280;4395;48.554;8.820;2023-02-20T03:26:04;96935.44;;;6.42;100.00
8717;BME280;4395;48.554;8.820;2023-02-20T03:28:10;96946.31;;;6.41;100.00
8717;BME280;4395;48.554;8.820;2023-02-20T03:30:20;96934.81;;;6.40;100.00
8717;BME280;4395;48.554;8.820;2023-02-20T03:32:26;96941.38;;;6.38;100.00
8717;BME280;4395;48.554;8.820;2023-02-20T03:34:47;96892.97;;;5.93;100.00
8717;BME280;4395;48.554;8.820;2023-02-20T03:37:13;96937.84;;;6.31;100.00
8717;BME280;4395;48.554;8.820;2023-02-20T03:39:40;96935.78;;;6.26;100.00
8717;BME280;4395;48.554;8.820;2023-02-20T03:42:06;96941.16;;;6.33;100.00
8717;BME280;4395;48.554;8.820;2023-02-20T03:44:36;96932.72;;;6.29;100.00
8717;BME280;4395;48.554;8.820;2023-02-20T03:46:41;96931.06;;;6.28;100.00
8717;BME280;4395;48.554;8.820;2023-02-20T03:48:49;96917.25;;;6.11;100.00
8717;BME280;4395;48.554;8.820;2023-02-20T03:50:54;96941.09;;;6.20;100.00
8717;BME280;4395;48.554;8.820;2023-02-20T03:52:59;96939.66;;;6.17;100.00
8717;BME280;4395;48.554;8.820;2023-02-20T03:55:04;96938.59;;;6.11;100.00
8717;BME280;4395;48.554;8.820;2023-02-20T03:57:13;96933.47;;;6.10;100.00
8717;BME280;4395;48.554;8.820;2023-02-20T03:59:21;96926.88;;;6.06;100.00
8717;BME280;4395;48.554;8.820;2023-02-20T04:01:26;96825.97;;;5.06;100.00
8717;BME280;4395;48.554;8.820;2023-02-20T04:03:32;96941.69;;;5.74;100.00
8717;BME280;4395;48.554;8.820;2023-02-20T04:05:38;96929.38;;;5.73;100.00
8717;BME280;4395;48.554;8.820;2023-02-20T04:07:49;96844.81;;;5.04;100.00
8717;BME280;4395;48.554;8.820;2023-02-20T04:09:58;96874.63;;;5.42;100.00
8717;BME280;4395;48.554;8.820;2023-02-20T04:12:12;96919.31;;;5.75;100.00
8717;BME280;4395;48.554;8.820;2023-02-20T04:14:21;96899.72;;;5.55;100.00
8717;BME280;4395;48.554;8.820;2023-02-20T04:16:29;96892.34;;;5.57;100.00
8717;BME280;4395;48.554;8.820;2023-02-20T04:18:34;96856.34;;;5.39;100.00
8717;BME280;4395;48.554;8.820;2023-02-20T04:20:38;96913.75;;;5.70;100.00
8717;BME280;4395;48.554;8.820;2023-02-20T04:23:00;96911.25;;;5.62;100.00
8717;BME280;4395;48.554;8.820;2023-02-20T04:25:09;96911.63;;;5.59;100.00
8717;BME280;4395;48.554;8.820;2023-02-20T04:27:17;96821.28;;;5.08;100.00
8717;BME280;4395;48.554;8.820;2023-02-20T04:29:25;96853.59;;;5.26;100.00
8717;BME280;4395;48.554;8.820;2023-02-20T04:31:31;96912.03;;;5.56;100.00
8717;BME280;4395;48.554;8.820;2023-02-20T04:33:35;96912.84;;;5.56;100.00
8717;BME280;4395;48.554;8.820;2023-02-20T04:35:43;96911.59;;;5.52;100.00
8717;BME280;4395;48.554;8.820;2023-02-20T04:37:47;96897.94;;;5.34;100.00
8717;BME280;4395;48.554;8.820;2023-02-20T04:39:50;96908.47;;;5.42;100.00
8717;BME280;4395;48.554;8.820;2023-02-20T04:41:52;96914.81;;;5.41;100.00
8717;BME280;4395;48.554;8.820;2023-02-20T04:43:57;96900.41;;;5.35;100.00
8717;BME280;4395;48.554;8.820;2023-02-20T04:46:14;96914.13;;;5.32;100.00
8717;BME280;4395;48.554;8.820;2023-02-20T04:48:18;96861.41;;;5.00;100.00
8717;BME280;4395;48.554;8.820;2023-02-20T04:50:24;96901.59;;;5.26;100.00
8717;BME280;4395;48.554;8.820;2023-02-20T04:52:27;96889.28;;;5.25;100.00
8717;BME280;4395;48.554;8.820;2023-02-20T04:54:30;96899.22;;;5.16;100.00
8717;BME280;4395;48.554;8.820;2023-02-20T04:56:33;96856.34;;;4.83;100.00
8717;BME280;4395;48.554;8.820;2023-02-20T04:58:38;96766.63;;;4.28;100.00
8717;BME280;4395;48.554;8.820;2023-02-20T05:00:52;96898.59;;;5.14;100.00
8717;BME280;4395;48.554;8.820;2023-02-20T05:02:56;96903.75;;;5.16;100.00
8717;BME280;4395;48.554;8.820;2023-02-20T05:04:59;96908.81;;;5.11;100.00
8717;BME280;4395;48.554;8.820;2023-02-20T05:07:02;96916.44;;;5.14;100.00
8717;BME280;4395;48.554;8.820;2023-02-20T05:09:04;96931.41;;;5.15;100.00
8717;BME280;4395;48.554;8.820;2023-02-20T05:11:09;96830.00;;;4.67;100.00
8717;BME280;4395;48.554;8.820;2023-02-20T05:13:12;96906.53;;;5.08;100.00
8717;BME280;4395;48.554;8.820;2023-02-20T05:15:15;96913.91;;;5.06;100.00
8717;BME280;4395;48.554;8.820;2023-02-20T05:17:19;96913.47;;;5.02;100.00
8717;BME280;4395;48.554;8.820;2023-02-20T05:19:22;96908.91;;;4.96;100.00
8717;BME280;4395;48.554;8.820;2023-02-20T05:21:25;96903.41;;;4.98;100.00
8717;BME280;4395;48.554;8.820;2023-02-20T05:23:46;96906.78;;;4.85;100.00
8717;BME280;4395;48.554;8.820;2023-02-20T05:25:49;96905.19;;;4.91;100.00
8717;BME280;4395;48.554;8.820;2023-02-20T05:27:51;96908.63;;;4.84;100.00
8717;BME280;4395;48.554;8.820;2023-02-20T05:29:56;96921.16;;;4.91;100.00
8717;BME280;4395;48.554;8.820;2023-02-20T05:31:59;96925.84;;;4.89;100.00
8717;BME280;4395;48.554;8.820;2023-02-20T05:34:03;96907.84;;;4.91;100.00
8717;BME280;4395;48.554;8.820;2023-02-20T05:36:07;96921.75;;;4.86;100.00
8717;BME280;4395;48.554;8.820;2023-02-20T05:38:16;96921.53;;;4.88;100.00
8717;BME280;4395;48.554;8.820;2023-02-20T05:40:19;96906.31;;;4.81;100.00
8717;BME280;4395;48.554;8.820;2023-02-20T05:42:21;96918.81;;;4.81;100.00
8717;BME280;4395;48.554;8.820;2023-02-20T05:44:24;96844.34;;;4.45;100.00
8717;BME280;4395;48.554;8.820;2023-02-20T05:46:27;96912.28;;;4.83;100.00
8717;BME280;4395;48.554;8.820;2023-02-20T05:48:30;96901.19;;;4.80;100.00
8717;BME280;4395;48.554;8.820;2023-02-20T05:50:34;96860.69;;;4.63;100.00
8717;BME280;4395;48.554;8.820;2023-02-20T05:52:39;96896.63;;;4.74;100.00
8717;BME280;4395;48.554;8.820;2023-02-20T05:54:41;96895.81;;;4.73;100.00
8717;BME280;4395;48.554;8.820;2023-02-20T05:56:47;96891.31;;;4.74;100.00
8717;BME280;4395;48.554;8.820;2023-02-20T05:58:50;96891.13;;;4.75;100.00
8717;BME280;4395;48.554;8.820;2023-02-20T06:00:53;96897.25;;;4.76;100.00
8717;BME280;4395;48.554;8.820;2023-02-20T06:02:56;96859.63;;;4.58;100.00
8717;BME280;4395;48.554;8.820;2023-02-20T06:04:58;96893.72;;;4.69;100.00
8717;BME280;4395;48.554;8.820;2023-02-20T06:07:02;96885.53;;;4.70;100.00
8717;BME280;4395;48.554;8.820;2023-02-20T06:09:07;96896.19;;;4.70;100.00
8717;BME280;4395;48.554;8.820;2023-02-20T06:11:12;96891.44;;;4.66;100.00
8717;BME280;4395;48.554;8.820;2023-02-20T06:13:15;96887.56;;;4.68;100.00
8717;BME280;4395;48.554;8.820;2023-02-20T06:15:17;96890.81;;;4.64;100.00
8717;BME280;4395;48.554;8.820;2023-02-20T06:17:20;96908.81;;;4.62;100.00
8717;BME280;4395;48.554;8.820;2023-02-20T06:19:24;96903.03;;;4.58;100.00
8717;BME280;4395;48.554;8.820;2023-02-20T06:21:27;96914.91;;;4.56;100.00
8717;BME280;4395;48.554;8.820;2023-02-20T06:23:31;96911.59;;;4.53;100.00
8717;BME280;4395;48.554;8.820;2023-02-20T06:25:34;96904.81;;;4.51;100.00
8717;BME280;4395;48.554;8.820;2023-02-20T06:27:37;96912.44;;;4.54;100.00
8717;BME280;4395;48.554;8.820;2023-02-20T06:29:40;96879.16;;;4.43;100.00
8717;BME280;4395;48.554;8.820;2023-02-20T06:31:43;96915.72;;;4.56;100.00
8717;BME280;4395;48.554;8.820;2023-02-20T06:33:46;96905.53;;;4.60;100.00
8717;BME280;4395;48.554;8.820;2023-02-20T06:35:49;96903.03;;;4.58;100.00
8717;BME280;4395;48.554;8.820;2023-02-20T06:37:51;96908.44;;;4.65;100.00
8717;BME280;4395;48.554;8.820;2023-02-20T06:39:55;96911.53;;;4.68;100.00
8717;BME280;4395;48.554;8.820;2023-02-20T06:41:58;96912.56;;;4.67;100.00
8717;BME280;4395;48.554;8.820;2023-02-20T06:44:01;96911.09;;;4.65;100.00
8717;BME280;4395;48.554;8.820;2023-02-20T06:46:04;96909.63;;;4.62;100.00
8717;BME280;4395;48.554;8.820;2023-02-20T06:48:07;96888.56;;;4.25;100.00
8717;BME280;4395;48.554;8.820;2023-02-20T06:50:09;96889.34;;;4.40;100.00
8717;BME280;4395;48.554;8.820;2023-02-20T06:52:12;96917.00;;;4.60;100.00
8717;BME280;4395;48.554;8.820;2023-02-20T06:54:15;96923.22;;;4.67;100.00
8717;BME280;4395;48.554;8.820;2023-02-20T06:56:23;96924.84;;;4.68;100.00
8717;BME280;4395;48.554;8.820;2023-02-20T06:58:26;96917.50;;;4.70;100.00
8717;BME280;4395;48.554;8.820;2023-02-20T07:00:29;96923.06;;;4.75;100.00
8717;BME280;4395;48.554;8.820;2023-02-20T07:02:32;96933.09;;;4.73;100.00
8717;BME280;4395;48.554;8.820;2023-02-20T07:04:37;96930.31;;;4.81;100.00
8717;BME280;4395;48.554;8.820;2023-02-20T07:06:40;96933.22;;;4.87;100.00
8717;BME280;4395;48.554;8.820;2023-02-20T07:08:43;96933.66;;;4.90;100.00
8717;BME280;4395;48.554;8.820;2023-02-20T07:10:46;96937.41;;;4.96;100.00
8717;BME280;4395;48.554;8.820;2023-02-20T07:12:50;96940.31;;;5.01;100.00
8717;BME280;4395;48.554;8.820;2023-02-20T07:14:53;96943.66;;;5.09;100.00
8717;BME280;4395;48.554;8.820;2023-02-20T07:16:55;96957.41;;;5.13;100.00
8717;BME280;4395;48.554;8.820;2023-02-20T07:18:58;96936.34;;;5.18;100.00
8717;BME280;4395;48.554;8.820;2023-02-20T07:21:01;96939.28;;;5.23;100.00
8717;BME280;4395;48.554;8.820;2023-02-20T07:23:04;96935.22;;;5.27;100.00
8717;BME280;4395;48.554;8.820;2023-02-20T07:25:07;96929.75;;;5.35;100.00
8717;BME280;4395;48.554;8.820;2023-02-20T07:27:09;96946.38;;;5.37;100.00
8717;BME280;4395;48.554;8.820;2023-02-20T07:29:15;96946.84;;;5.47;100.00
8717;BME280;4395;48.554;8.820;2023-02-20T07:31:18;96943.78;;;5.51;100.00
8717;BME280;4395;48.554;8.820;2023-02-20T07:33:20;96951.41;;;5.54;100.00
8717;BME280;4395;48.554;8.820;2023-02-20T07:35:23;96950.22;;;5.63;100.00
8717;BME280;4395;48.554;8.820;2023-02-20T07:37:31;96951.47;;;5.67;100.00
8717;BME280;4395;48.554;8.820;2023-02-20T07:39:34;96948.66;;;5.75;100.00
8717;BME280;4395;48.554;8.820;2023-02-20T07:41:36;96943.31;;;5.75;100.00
8717;BME280;4395;48.554;8.820;2023-02-20T07:43:48;96936.72;;;5.71;100.00
8717;BME280;4395;48.554;8.820;2023-02-20T07:45:52;96940.47;;;5.76;100.00
8717;BME280;4395;48.554;8.820;2023-02-20T07:47:55;96941.13;;;5.85;100.00
8717;BME280;4395;48.554;8.820;2023-02-20T07:49:58;96944.41;;;5.87;100.00
8717;BME280;4395;48.554;8.820;2023-02-20T07:52:00;96940.56;;;5.90;100.00
8717;BME280;4395;48.554;8.820;2023-02-20T07:54:03;96937.31;;;5.94;100.00
8717;BME280;4395;48.554;8.820;2023-02-20T07:56:07;96944.47;;;5.94;100.00
8717;BME280;4395;48.554;8.820;2023-02-20T07:58:10;96931.13;;;5.94;100.00
8717;BME280;4395;48.554;8.820;2023-02-20T08:00:15;96906.84;;;5.82;100.00
8717;BME280;4395;48.554;8.820;2023-02-20T08:02:20;96940.22;;;6.06;100.00
8717;BME280;4395;48.554;8.820;2023-02-20T08:04:23;96936.56;;;6.13;100.00
8717;BME280;4395;48.554;8.820;2023-02-20T08:06:25;96938.66;;;6.25;100.00
8717;BME280;4395;48.554;8.820;2023-02-20T08:08:29;96728.38;;;4.98;100.00
8717;BME280;4395;48.554;8.820;2023-02-20T08:10:32;96932.91;;;6.28;100.00
8717;BME280;4395;48.554;8.820;2023-02-20T08:12:34;96937.47;;;6.34;100.00
8717;BME280;4395;48.554;8.820;2023-02-20T08:14:37;96933.78;;;6.41;100.00
8717;BME280;4395;48.554;8.820;2023-02-20T08:16:40;96885.44;;;6.17;100.00
8717;BME280;4395;48.554;8.820;2023-02-20T08:18:44;96902.53;;;6.29;100.00
8717;BME280;4395;48.554;8.820;2023-02-20T08:20:47;96942.06;;;6.66;100.00
8717;BME280;4395;48.554;8.820;2023-02-20T08:22:50;96937.13;;;6.63;100.00
8717;BME280;4395;48.554;8.820;2023-02-20T08:24:53;96930.56;;;6.66;100.00
8717;BME280;4395;48.554;8.820;2023-02-20T08:26:55;96921.72;;;6.65;100.00
8717;BME280;4395;48.554;8.820;2023-02-20T08:29:00;96930.97;;;6.69;100.00
8717;BME280;4395;48.554;8.820;2023-02-20T08:31:03;96918.66;;;6.75;100.00
8717;BME280;4395;48.554;8.820;2023-02-20T08:33:06;96927.28;;;6.84;100.00
8717;BME280;4395;48.554;8.820;2023-02-20T08:35:10;96923.19;;;6.94;100.00
8717;BME280;4395;48.554;8.820;2023-02-20T08:37:13;96920.72;;;6.99;100.00
8717;BME280;4395;48.554;8.820;2023-02-20T08:39:16;96917.03;;;7.14;100.00
8717;BME280;4395;48.554;8.820;2023-02-20T08:41:19;96910.25;;;7.18;100.00
8717;BME280;4395;48.554;8.820;2023-02-20T08:43:22;96883.31;;;7.13;100.00
8717;BME280;4395;48.554;8.820;2023-02-20T08:45:28;96906.13;;;7.35;100.00
8717;BME280;4395;48.554;8.820;2023-02-20T08:47:31;96899.34;;;7.32;100.00
8717;BME280;4395;48.554;8.820;2023-02-20T08:49:34;96894.78;;;7.53;100.00
8717;BME280;4395;48.554;8.820;2023-02-20T08:51:38;96904.81;;;7.70;100.00
8717;BME280;4395;48.554;8.820;2023-02-20T08:53:41;96898.03;;;7.81;100.00
8717;BME280;4395;48.554;8.820;2023-02-20T08:55:43;96904.97;;;7.95;100.00
8717;BME280;4395;48.554;8.820;2023-02-20T08:57:46;96905.78;;;8.02;100.00
8717;BME280;4395;48.554;8.820;2023-02-20T08:59:49;96895.88;;;8.10;100.00
8717;BME280;4395;48.554;8.820;2023-02-20T09:01:51;96888.84;;;8.15;100.00
8717;BME280;4395;48.554;8.820;2023-02-20T09:03:54;96901.16;;;8.23;100.00
8717;BME280;4395;48.554;8.820;2023-02-20T09:05:57;96887.53;;;8.37;100.00
8717;BME280;4395;48.554;8.820;2023-02-20T09:08:02;96841.25;;;8.17;100.00
8717;BME280;4395;48.554;8.820;2023-02-20T09:10:05;96862.81;;;8.35;100.00
8717;BME280;4395;48.554;8.820;2023-02-20T09:12:08;96787.19;;;7.95;100.00
8717;BME280;4395;48.554;8.820;2023-02-20T09:14:11;96879.72;;;8.67;100.00
8717;BME280;4395;48.554;8.820;2023-02-20T09:16:17;96879.84;;;8.79;100.00
8717;BME280;4395;48.554;8.820;2023-02-20T09:18:20;96881.69;;;8.47;100.00
8717;BME280;4395;48.554;8.820;2023-02-20T09:20:23;96880.91;;;8.72;100.00
8717;BME280;4395;48.554;8.820;2023-02-20T09:22:26;96868.38;;;8.97;100.00
8717;BME280;4395;48.554;8.820;2023-02-20T09:24:30;96830.66;;;8.92;100.00
8717;BME280;4395;48.554;8.820;2023-02-20T09:26:35;96807.13;;;8.94;100.00
8717;BME280;4395;48.554;8.820;2023-02-20T09:28:37;96870.88;;;9.60;100.00
8717;BME280;4395;48.554;8.820;2023-02-20T09:30:41;96874.00;;;9.57;100.00
8717;BME280;4395;48.554;8.820;2023-02-20T09:32:43;96874.47;;;9.72;100.00
8717;BME280;4395;48.554;8.820;2023-02-20T09:34:47;96870.28;;;9.76;100.00
8717;BME280;4395;48.554;8.820;2023-02-20T09:36:50;96830.16;;;9.63;100.00
8717;BME280;4395;48.554;8.820;2023-02-20T09:38:55;96826.75;;;9.74;100.00
8717;BME280;4395;48.554;8.820;2023-02-20T09:40:59;96874.00;;;10.12;97.40
8717;BME280;4395;48.554;8.820;2023-02-20T09:43:13;96870.59;;;10.23;96.96
8717;BME280;4395;48.554;8.820;2023-02-20T09:45:21;96882.50;;;10.27;92.89
8717;BME280;4395;48.554;8.820;2023-02-20T09:47:38;96867.50;;;10.38;95.25
8717;BME280;4395;48.554;8.820;2023-02-20T09:49:43;96873.56;;;10.63;94.95
8717;BME280;4395;48.554;8.820;2023-02-20T09:51:51;96867.75;;;10.66;92.40
8717;BME280;4395;48.554;8.820;2023-02-20T09:53:57;96866.69;;;10.67;89.75
8717;BME280;4395;48.554;8.820;2023-02-20T09:56:09;96860.75;;;10.77;91.12
8717;BME280;4395;48.554;8.820;2023-02-20T09:58:19;96739.06;;;10.28;89.98
8717;BME280;4395;48.554;8.820;2023-02-20T10:00:27;96858.13;;;11.12;87.62
8717;BME280;4395;48.554;8.820;2023-02-20T10:02:34;96853.91;;;11.16;86.81
8717;BME280;4395;48.554;8.820;2023-02-20T10:04:42;96859.91;;;11.30;87.42
8717;BME280;4395;48.554;8.820;2023-02-20T10:07:07;96860.00;;;11.35;84.63
8717;BME280;4395;48.554;8.820;2023-02-20T10:09:14;96846.19;;;10.96;86.85
8717;BME280;4395;48.554;8.820;2023-02-20T10:11:31;96852.19;;;11.21;85.60
8717;BME280;4395;48.554;8.820;2023-02-20T10:13:45;96845.75;;;11.46;84.48
8717;BME280;4395;48.554;8.820;2023-02-20T10:15:54;96837.19;;;11.60;83.22
8717;BME280;4395;48.554;8.820;2023-02-20T10:18:08;96835.88;;;11.86;84.22
8717;BME280;4395;48.554;8.820;2023-02-20T10:20:16;96776.06;;;11.84;80.25
8717;BME280;4395;48.554;8.820;2023-02-20T10:22:24;96842.22;;;12.49;78.17
8717;BME280;4395;48.554;8.820;2023-02-20T10:24:41;96827.06;;;12.60;77.57
8717;BME280;4395;48.554;8.820;2023-02-20T10:26:49;96834.66;;;12.63;76.03
8717;BME280;4395;48.554;8.820;2023-02-20T10:29:00;96830.97;;;12.23;77.59
8717;BME280;4395;48.554;8.820;2023-02-20T10:31:24;96840.25;;;12.73;76.70
8717;BME280;4395;48.554;8.820;2023-02-20T10:33:33;96829.88;;;12.98;75.01
8717;BME280;4395;48.554;8.820;2023-02-20T10:35:41;96836.81;;;13.23;73.33
8717;BME280;4395;48.554;8.820;2023-02-20T10:37:49;96832.22;;;13.40;74.15
8717;BME280;4395;48.554;8.820;2023-02-20T10:39:57;96817.28;;;13.54;70.36
8717;BME280;4395;48.554;8.820;2023-02-20T10:42:08;96823.75;;;13.53;68.12
8717;BME280;4395;48.554;8.820;2023-02-20T10:44:18;96823.44;;;13.88;71.40
8717;BME280;4395;48.554;8.820;2023-02-20T10:46:28;96818.78;;;14.05;67.15
8717;BME280;4395;48.554;8.820;2023-02-20T10:48:49;96823.28;;;14.22;66.73
8717;BME280;4395;48.554;8.820;2023-02-20T10:51:02;96812.72;;;14.42;62.10
8717;BME280;4395;48.554;8.820;2023-02-20T10:53:15;96810.13;;;14.30;58.11
8717;BME280;4395;48.554;8.820;2023-02-20T10:55:26;96808.72;;;14.23;57.17
8717;BME280;4395;48.554;8.820;2023-02-20T10:57:34;96820.06;;;13.59;58.68
8717;BME280;4395;48.554;8.820;2023-02-20T10:59:43;96814.94;;;13.79;58.35
8717;BME280;4395;48.554;8.820;2023-02-20T11:01:53;96815.31;;;14.10;59.14
8717;BME280;4395;48.554;8.820;2023-02-20T11:03:59;96810.59;;;13.57;57.50
8717;BME280;4395;48.554;8.820;2023-02-20T11:06:04;96807.00;;;13.51;56.27
8717;BME280;4395;48.554;8.820;2023-02-20T11:08:08;96806.91;;;13.84;55.80
8717;BME280;4395;48.554;8.820;2023-02-20T11:10:11;96806.81;;;14.45;54.73
8717;BME280;4395;48.554;8.820;2023-02-20T11:12:23;96803.25;;;14.98;54.16
8717;BME280;4395;48.554;8.820;2023-02-20T11:14:32;96794.47;;;15.18;52.20
8717;BME280;4395;48.554;8.820;2023-02-20T11:16:46;96722.91;;;15.04;53.00
8717;BME280;4395;48.554;8.820;2023-02-20T11:18:57;96788.09;;;15.71;50.22
8717;BME280;4395;48.554;8.820;2023-02-20T11:21:03;96795.19;;;15.83;46.65
8717;BME280;4395;48.554;8.820;2023-02-20T11:23:06;96784.63;;;15.44;46.78
8717;BME280;4395;48.554;8.820;2023-02-20T11:25:16;96785.94;;;14.67;48.78
8717;BME280;4395;48.554;8.820;2023-02-20T11:27:21;96796.91;;;15.20;47.59
8717;BME280;4395;48.554;8.820;2023-02-20T11:29:29;96789.03;;;14.81;47.15
8717;BME280;4395;48.554;8.820;2023-02-20T11:31:35;96775.38;;;14.66;46.86
8717;BME280;4395;48.554;8.820;2023-02-20T11:33:44;96776.91;;;14.57;47.74
8717;BME280;4395;48.554;8.820;2023-02-20T11:35:50;96771.13;;;15.12;51.80